Time;durP1;ratioP1;P1;durP2;ratioP2;P2;SDS_P1;SDS_P2;PMS_P1;PMS_P2;Temp;Humidity;BMP_temperature;BMP_pressure;BME280_temperature;BME280_humidity;BME280_pressure;Samples;Min_cycle;Max_cycle;Signal;HPM_P1;HPM_P2
2023/03/10 00:01:19;;;;;;;9.32;6.53;;;22.90;99.90;;;;;;4918194;29;20066;-50
2023/03/10 00:03:46;;;;;;;10.13;6.93;;;22.80;99.90;;;;;;4916971;29;20063;-51
2023/03/10 00:06:14;;;;;;;9.15;6.07;;;22.90;99.90;;;;;;4918308;29;20036;-52
2023/03/10 00:08:41;;;;;;;9.85;6.70;;;22.90;99.90;;;;;;4918196;29;20421;-51
2023/03/10 00:11:07;;;;;;;11.80;7.60;;;22.80;99.90;;;;;;4918320;29;20032;-51
2023/03/10 00:13:33;;;;;;;10.60;7.03;;;22.80;99.90;;;;;;4918902;29;20382;-51
2023/03/10 00:15:59;;;;;;;10.32;6.93;;;22.80;99.90;;;;;;4918461;29;20031;-53
2023/03/10 00:18:25;;;;;;;11.30;6.60;;;22.80;99.90;;;;;;4918028;29;20495;-52
2023/03/10 00:20:52;;;;;;;10.93;7.20;;;22.80;99.90;;;;;;4916664;29;20111;-52
2023/03/10 00:23:18;;;;;;;10.88;7.43;;;22.80;99.90;;;;;;4918075;29;20039;-53
2023/03/10 00:25:44;;;;;;;10.90;7.35;;;22.80;99.90;;;;;;4917788;29;20099;-52
2023/03/10 00:28:10;;;;;;;10.95;7.25;;;22.80;99.90;;;;;;4918177;29;20426;-52
2023/03/10 00:30:36;;;;;;;10.40;7.43;;;22.80;99.90;;;;;;4916665;29;20048;-52
2023/03/10 00:33:02;;;;;;;12.88;7.97;;;22.80;99.90;;;;;;4918069;29;20028;-52
2023/03/10 00:35:28;;;;;;;12.27;8.07;;;22.80;99.90;;;;;;4917617;29;20504;-52
2023/03/10 00:37:55;;;;;;;11.43;7.22;;;22.70;99.90;;;;;;4916492;29;20071;-51
2023/03/10 00:40:21;;;;;;;11.43;7.85;;;22.80;99.90;;;;;;4917727;29;20078;-51
2023/03/10 00:42:47;;;;;;;11.90;8.10;;;22.70;99.90;;;;;;4917605;29;20043;-51
2023/03/10 00:45:12;;;;;;;11.90;7.50;;;22.80;99.90;;;;;;4917594;29;20044;-52
2023/03/10 00:47:38;;;;;;;11.23;7.82;;;22.70;99.90;;;;;;4917514;29;20059;-51
2023/03/10 00:50:04;;;;;;;11.77;8.02;;;22.70;99.90;;;;;;4916404;29;20397;-51
2023/03/10 00:52:32;;;;;;;9.93;7.40;;;22.70;99.90;;;;;;4917452;29;20039;-52
2023/03/10 00:54:57;;;;;;;11.43;7.65;;;22.70;99.90;;;;;;4916435;29;20056;-51
2023/03/10 00:57:23;;;;;;;9.98;7.65;;;22.70;99.90;;;;;;4917582;29;20028;-52
2023/03/10 00:59:52;;;;;;;11.57;7.30;;;22.70;99.90;;;;;;4917774;29;20071;-51
2023/03/10 01:02:19;;;;;;;11.43;7.75;;;22.70;99.90;;;;;;4917368;29;20028;-52
2023/03/10 01:04:46;;;;;;;12.38;8.00;;;22.70;99.90;;;;;;4917130;29;20038;-51
2023/03/10 01:07:12;;;;;;;11.57;7.32;;;22.70;99.90;;;;;;4916029;29;20032;-51
2023/03/10 01:09:37;;;;;;;12.07;7.93;;;22.70;99.90;;;;;;4917038;29;20481;-52
2023/03/10 01:12:03;;;;;;;10.65;7.93;;;22.70;99.90;;;;;;4917354;29;20020;-52
2023/03/10 01:14:30;;;;;;;10.95;7.53;;;22.60;99.90;;;;;;4917089;29;20461;-51
2023/03/10 01:16:58;;;;;;;11.77;8.02;;;22.70;99.90;;;;;;4917099;29;20060;-52
2023/03/10 01:19:24;;;;;;;11.25;7.47;;;22.60;99.90;;;;;;4917202;29;20489;-51
2023/03/10 01:21:49;;;;;;;11.23;8.00;;;22.60;99.90;;;;;;4917126;29;20099;-52
2023/03/10 01:24:15;;;;;;;12.70;8.18;;;22.70;99.90;;;;;;4916915;29;20072;-52
2023/03/10 01:26:41;;;;;;;12.13;7.85;;;22.60;99.90;;;;;;4916716;29;20381;-52
2023/03/10 01:29:07;;;;;;;10.45;7.45;;;22.60;99.90;;;;;;4916860;29;20044;-52
2023/03/10 01:31:32;;;;;;;11.65;7.65;;;22.60;99.90;;;;;;4916656;29;20039;-52
2023/03/10 01:33:58;;;;;;;13.73;8.75;;;22.60;99.90;;;;;;4916808;29;20028;-52
2023/03/10 01:36:25;;;;;;;10.10;7.05;;;22.60;99.90;;;;;;4916802;29;20374;-51
2023/03/10 01:38:52;;;;;;;11.93;8.32;;;22.60;99.90;;;;;;4916904;29;20035;-51
2023/03/10 01:41:19;;;;;;;10.05;7.43;;;22.60;99.90;;;;;;4915400;29;20032;-52
2023/03/10 01:43:50;;;;;;;12.77;8.20;;;22.60;99.90;;;;;;4916609;29;20031;-52
2023/03/10 01:46:30;;;;;;;12.20;7.57;;;22.60;99.90;;;;;;4916289;29;20816;-52
2023/03/10 01:49:06;;;;;;;10.35;7.15;;;22.60;99.90;;;;;;4916763;29;20020;-52
2023/03/10 01:51:36;;;;;;;9.83;7.33;;;22.60;99.90;;;;;;4915194;29;20066;-53
2023/03/10 01:54:08;;;;;;;10.38;7.53;;;22.60;99.90;;;;;;4916550;29;20028;-52
2023/03/10 01:56:35;;;;;;;13.43;7.63;;;22.60;99.90;;;;;;4903182;29;20027;-52
2023/03/10 01:59:01;;;;;;;9.82;6.97;;;22.60;99.90;;;;;;4916299;29;20107;-52
2023/03/10 02:01:28;;;;;;;10.93;8.13;;;22.60;99.90;;;;;;4916584;29;20062;-52
2023/03/10 02:04:02;;;;;;;11.52;7.65;;;22.50;99.90;;;;;;4916397;29;20060;-52
2023/03/10 02:06:29;;;;;;;10.75;7.28;;;22.50;99.90;;;;;;4914763;29;20035;-52
2023/03/10 02:08:58;;;;;;;10.45;7.43;;;22.50;99.90;;;;;;4916440;29;20024;-52
2023/03/10 02:11:25;;;;;;;11.23;7.10;;;22.50;99.90;;;;;;4916204;29;20099;-52
2023/03/10 02:13:53;;;;;;;9.05;6.80;;;22.50;99.90;;;;;;4916192;29;20107;-53
2023/03/10 02:16:19;;;;;;;8.90;6.80;;;22.50;99.90;;;;;;4915994;29;20036;-52
2023/03/10 02:18:47;;;;;;;10.85;7.53;;;22.50;99.90;;;;;;4916388;29;20442;-52
2023/03/10 02:21:19;;;;;;;10.05;7.30;;;22.50;99.90;;;;;;4915955;29;20173;-52
2023/03/10 02:24:03;;;;;;;13.13;7.25;;;22.50;99.90;;;;;;4916100;29;20044;-52
2023/03/10 02:26:34;;;;;;;9.35;6.80;;;22.50;99.90;;;;;;4915824;29;20441;-52
2023/03/10 02:29:04;;;;;;;10.73;7.32;;;22.50;99.90;;;;;;4915993;29;20020;-52
2023/03/10 02:31:31;;;;;;;12.10;7.70;;;22.50;99.90;;;;;;4915707;29;20048;-52
2023/03/10 02:33:58;;;;;;;10.07;6.93;;;22.50;99.90;;;;;;4916158;29;20384;-52
2023/03/10 02:36:24;;;;;;;10.00;6.78;;;22.50;99.90;;;;;;4915781;29;20032;-52
2023/03/10 02:38:50;;;;;;;9.05;6.93;;;22.50;99.90;;;;;;4915846;29;20469;-51
2023/03/10 02:41:23;;;;;;;9.20;6.55;;;22.50;99.90;;;;;;4915573;29;20064;-51
2023/03/10 02:43:49;;;;;;;9.63;7.43;;;22.50;99.90;;;;;;4915864;29;20111;-51
2023/03/10 02:46:15;;;;;;;10.07;6.82;;;22.50;99.90;;;;;;4915707;29;20067;-51
2023/03/10 02:48:41;;;;;;;9.73;6.32;;;22.40;99.90;;;;;;4915878;29;20032;-52
2023/03/10 02:51:15;;;;;;;10.40;6.53;;;22.50;99.90;;;;;;4915651;29;20032;-51
2023/03/10 02:53:41;;;;;;;9.82;6.90;;;22.40;99.90;;;;;;4915716;29;20024;-50
2023/03/10 02:56:07;;;;;;;8.88;6.07;;;22.40;99.90;;;;;;4915760;29;20016;-53
2023/03/10 02:58:33;;;;;;;10.90;6.70;;;22.40;99.90;;;;;;4915671;29;20027;-52
2023/03/10 03:00:59;;;;;;;9.98;6.30;;;22.40;99.90;;;;;;4915998;29;20456;-53
2023/03/10 03:03:25;;;;;;;9.65;6.53;;;22.50;99.90;;;;;;4913671;29;20043;-52
2023/03/10 03:05:50;;;;;;;8.70;6.28;;;22.40;99.90;;;;;;4896999;29;20124;-51
2023/03/10 03:08:17;;;;;;;9.55;6.20;;;22.40;99.90;;;;;;4903255;29;20028;-51
2023/03/10 03:10:43;;;;;;;10.70;6.77;;;22.40;99.90;;;;;;4915784;29;20035;-52
2023/03/10 03:13:09;;;;;;;9.48;6.25;;;22.40;99.90;;;;;;4915269;29;20263;-52
2023/03/10 03:15:35;;;;;;;8.77;6.22;;;22.40;99.90;;;;;;4915631;29;20421;-52
2023/03/10 03:18:02;;;;;;;8.60;6.20;;;22.40;99.90;;;;;;4917721;29;20507;-52
2023/03/10 03:20:30;;;;;;;9.13;6.35;;;22.40;99.90;;;;;;4919585;29;20393;-52
2023/03/10 03:22:57;;;;;;;7.53;5.82;;;22.40;99.90;;;;;;4919208;29;20028;-52
2023/03/10 03:25:24;;;;;;;9.40;6.13;;;22.40;99.90;;;;;;4919100;29;20481;-52
2023/03/10 03:27:50;;;;;;;9.45;6.45;;;22.40;99.90;;;;;;4918920;29;20024;-53
2023/03/10 03:30:22;;;;;;;7.15;5.30;;;22.40;99.90;;;;;;4919063;29;20047;-53
2023/03/10 03:32:48;;;;;;;7.07;5.32;;;22.40;99.90;;;;;;4917593;29;20541;-53
2023/03/10 03:35:20;;;;;;;10.00;5.93;;;22.40;99.90;;;;;;4918857;29;20111;-52
2023/03/10 03:37:46;;;;;;;9.18;5.97;;;22.30;99.90;;;;;;4917633;29;20031;-53
2023/03/10 03:40:13;;;;;;;8.77;6.25;;;22.30;99.90;;;;;;4918972;29;20024;-52
2023/03/10 03:42:43;;;;;;;10.20;6.50;;;22.30;99.90;;;;;;4918601;29;20032;-53
2023/03/10 03:45:10;;;;;;;8.52;5.97;;;22.30;99.90;;;;;;4918622;29;20477;-53
2023/03/10 03:47:36;;;;;;;11.65;5.05;;;22.30;99.90;;;;;;4918605;29;20492;-52
2023/03/10 03:50:03;;;;;;;9.32;6.38;;;22.30;99.90;;;;;;4918955;29;20032;-52
2023/03/10 03:52:29;;;;;;;8.57;5.67;;;22.30;99.90;;;;;;4918757;29;20028;-52
2023/03/10 03:54:54;;;;;;;7.65;5.97;;;22.30;99.90;;;;;;4918564;29;20489;-53
2023/03/10 03:57:20;;;;;;;9.60;6.63;;;22.30;99.90;;;;;;4918593;29;20032;-53
2023/03/10 03:59:46;;;;;;;9.10;6.53;;;22.30;99.90;;;;;;4935616;23;20451;-48
2023/03/10 04:02:12;;;;;;;8.35;6.10;;;22.30;99.90;;;;;;4956602;28;20430;-48
2023/03/10 04:04:38;;;;;;;11.75;6.72;;;22.20;99.90;;;;;;4956622;28;20489;-48
2023/03/10 04:07:03;;;;;;;11.30;6.32;;;22.20;99.90;;;;;;4956480;28;20062;-48
2023/03/10 04:09:29;;;;;;;9.50;6.82;;;22.20;99.90;;;;;;4956508;28;20019;-48
2023/03/10 04:11:55;;;;;;;8.18;5.80;;;22.20;99.90;;;;;;4956401;28;20038;-48
2023/03/10 04:14:21;;;;;;;11.20;5.97;;;22.20;99.90;;;;;;4956232;28;20058;-48
2023/03/10 04:16:47;;;;;;;9.93;6.45;;;22.20;99.90;;;;;;4955338;28;20023;-49
2023/03/10 04:19:13;;;;;;;10.73;6.18;;;22.20;99.90;;;;;;4956235;28;20031;-49
2023/03/10 04:21:39;;;;;;;9.77;6.07;;;22.20;99.90;;;;;;4956209;28;20050;-49
2023/03/10 04:24:05;;;;;;;10.20;6.32;;;22.20;99.90;;;;;;4956039;28;20062;-48
2023/03/10 04:26:31;;;;;;;11.73;6.88;;;22.20;99.90;;;;;;4956080;28;20030;-49
2023/03/10 04:28:58;;;;;;;9.38;6.15;;;22.20;99.90;;;;;;4955864;28;20019;-49
2023/03/10 04:31:25;;;;;;;9.20;5.87;;;22.20;99.90;;;;;;4956210;28;20015;-49
2023/03/10 04:33:51;;;;;;;10.50;7.03;;;22.10;99.90;;;;;;4956056;28;20058;-48
2023/03/10 04:36:18;;;;;;;10.27;6.28;;;22.10;99.90;;;;;;4955663;28;20341;-48
2023/03/10 04:38:44;;;;;;;9.82;6.45;;;22.10;99.90;;;;;;4956029;28;20027;-49
2023/03/10 04:41:09;;;;;;;10.65;6.60;;;22.10;99.90;;;;;;4955935;28;20034;-49
2023/03/10 04:43:36;;;;;;;9.38;6.53;;;22.10;99.90;;;;;;4955842;28;20035;-49
2023/03/10 04:46:02;;;;;;;9.88;6.55;;;22.10;99.90;;;;;;4955776;28;20102;-48
2023/03/10 04:48:29;;;;;;;8.70;6.07;;;22.10;99.90;;;;;;4954324;28;20035;-48
2023/03/10 04:50:57;;;;;;;9.57;6.53;;;22.10;99.90;;;;;;4955518;28;20581;-49
2023/03/10 04:53:23;;;;;;;11.57;6.93;;;22.10;99.90;;;;;;4955712;28;20172;-49
2023/03/10 04:55:50;;;;;;;10.00;6.13;;;22.10;99.90;;;;;;4955418;28;20041;-49
2023/03/10 04:58:17;;;;;;;10.55;6.80;;;22.00;99.90;;;;;;4955597;28;20028;-48
2023/03/10 05:00:43;;;;;;;10.50;6.93;;;22.10;99.90;;;;;;4956483;28;20054;-48
2023/03/10 05:03:09;;;;;;;10.38;6.95;;;22.00;99.90;;;;;;4955325;28;20027;-48
2023/03/10 05:05:36;;;;;;;10.70;7.43;;;22.10;99.90;;;;;;4955600;28;20182;-48
2023/03/10 05:08:02;;;;;;;10.98;7.53;;;22.00;99.90;;;;;;4955356;28;20031;-48
2023/03/10 05:10:28;;;;;;;10.75;7.00;;;22.00;99.90;;;;;;4955311;28;20039;-48
2023/03/10 05:12:53;;;;;;;11.20;7.03;;;22.00;99.90;;;;;;4954937;28;20024;-49
2023/03/10 05:15:20;;;;;;;9.65;6.80;;;22.00;99.90;;;;;;4955362;28;20454;-49
2023/03/10 05:17:45;;;;;;;11.95;7.03;;;22.00;99.90;;;;;;4955194;28;20051;-48
2023/03/10 05:20:12;;;;;;;10.80;7.35;;;22.00;99.90;;;;;;4954845;28;20031;-48
2023/03/10 05:22:39;;;;;;;12.13;8.35;;;22.00;99.90;;;;;;4953850;28;20019;-48
2023/03/10 05:25:06;;;;;;;10.93;7.15;;;22.00;99.90;;;;;;4954891;28;20050;-48
2023/03/10 05:27:33;;;;;;;11.55;7.43;;;22.00;99.90;;;;;;4954905;28;20114;-48
2023/03/10 05:29:59;;;;;;;10.95;7.32;;;22.00;99.90;;;;;;4955047;28;20063;-48
2023/03/10 05:32:25;;;;;;;10.82;7.82;;;22.00;99.90;;;;;;4954843;28;20031;-48
2023/03/10 05:34:51;;;;;;;11.10;7.65;;;22.00;99.90;;;;;;4954962;28;20032;-48
2023/03/10 05:37:17;;;;;;;11.85;7.65;;;22.00;99.90;;;;;;4954745;28;20034;-48
2023/03/10 05:39:43;;;;;;;11.23;7.07;;;22.00;99.90;;;;;;4954174;28;20500;-48
2023/03/10 05:42:11;;;;;;;11.00;8.02;;;22.00;99.90;;;;;;4954861;28;20124;-48
2023/03/10 05:44:38;;;;;;;10.43;6.93;;;22.00;99.90;;;;;;4954699;28;20034;-48
2023/03/10 05:47:05;;;;;;;10.75;7.25;;;22.00;99.90;;;;;;4954851;28;20071;-48
2023/03/10 05:49:30;;;;;;;12.57;7.40;;;22.00;99.90;;;;;;4954493;28;20468;-48
2023/03/10 05:51:57;;;;;;;9.63;6.68;;;22.00;99.90;;;;;;4953113;28;20023;-48
2023/03/10 05:54:23;;;;;;;12.60;7.18;;;22.00;99.90;;;;;;4954312;28;20023;-52
2023/03/10 05:56:49;;;;;;;10.85;6.78;;;21.90;99.90;;;;;;4954438;28;20016;-48
2023/03/10 05:59:15;;;;;;;9.40;6.05;;;22.00;99.90;;;;;;4954267;28;20031;-47
2023/03/10 06:01:41;;;;;;;9.98;6.50;;;22.00;99.90;;;;;;4954229;28;20051;-48
2023/03/10 06:04:07;;;;;;;10.75;6.82;;;21.90;99.90;;;;;;4954538;28;20391;-48
2023/03/10 06:06:33;;;;;;;11.77;6.47;;;21.90;99.90;;;;;;4954436;28;20467;-49
2023/03/10 06:08:59;;;;;;;10.82;6.78;;;21.90;99.90;;;;;;4954104;28;20098;-49
2023/03/10 06:11:25;;;;;;;9.35;5.72;;;22.00;99.90;;;;;;4954327;28;20384;-48
2023/03/10 06:13:52;;;;;;;10.13;6.07;;;21.90;99.90;;;;;;4953953;28;20493;-48
2023/03/10 06:16:17;;;;;;;10.30;5.70;;;21.90;99.90;;;;;;4954115;28;20399;-48
2023/03/10 06:18:43;;;;;;;10.88;6.47;;;21.90;99.90;;;;;;4954062;28;20031;-48
2023/03/10 06:21:13;;;;;;;8.90;5.35;;;21.90;99.90;;;;;;4952996;28;20113;-48
2023/03/10 06:23:39;;;;;;;10.02;5.38;;;21.90;99.90;;;;;;4954516;28;20427;-50
2023/03/10 06:26:12;;;;;;;10.68;6.45;;;21.90;99.90;;;;;;4954175;28;20046;-48
2023/03/10 06:28:39;;;;;;;8.70;5.40;;;21.90;99.90;;;;;;4954156;28;20469;-48
2023/03/10 06:31:07;;;;;;;9.77;5.65;;;21.90;99.90;;;;;;4953999;28;20062;-49
2023/03/10 06:33:33;;;;;;;8.95;5.53;;;21.90;99.90;;;;;;4953869;28;20032;-49
2023/03/10 06:35:59;;;;;;;8.05;5.53;;;21.90;99.90;;;;;;4953866;28;20106;-50
2023/03/10 06:38:25;;;;;;;8.02;4.95;;;21.90;99.90;;;;;;4953951;28;20404;-49
2023/03/10 06:40:51;;;;;;;8.00;4.97;;;21.90;99.90;;;;;;4953815;28;20023;-49
2023/03/10 06:43:17;;;;;;;9.15;4.68;;;21.90;99.90;;;;;;4952292;28;20106;-50
2023/03/10 06:45:44;;;;;;;6.97;4.80;;;21.90;99.90;;;;;;4953779;28;20035;-49
2023/03/10 06:48:10;;;;;;;9.55;5.28;;;21.90;99.90;;;;;;4953966;28;20503;-49
2023/03/10 06:50:39;;;;;;;9.73;5.15;;;21.90;99.90;;;;;;4952569;28;20348;-49
2023/03/10 06:53:05;;;;;;;13.10;5.28;;;21.90;99.90;;;;;;4956226;28;20380;-49
2023/03/10 06:55:30;;;;;;;9.65;5.22;;;21.80;99.90;;;;;;4956447;28;20027;-48
2023/03/10 06:57:56;;;;;;;7.60;4.78;;;21.80;99.90;;;;;;4957525;28;20376;-48
2023/03/10 07:00:22;;;;;;;7.68;4.35;;;21.80;99.90;;;;;;4957517;28;20043;-48
2023/03/10 07:02:48;;;;;;;8.00;4.55;;;21.80;99.90;;;;;;4957586;28;20464;-48
2023/03/10 07:05:14;;;;;;;9.93;5.18;;;21.80;99.90;;;;;;4957439;28;20479;-48
2023/03/10 07:07:39;;;;;;;7.55;4.53;;;21.80;99.90;;;;;;4957707;28;20023;-49
2023/03/10 07:10:06;;;;;;;8.43;4.38;;;21.80;99.90;;;;;;4957439;28;20038;-48
2023/03/10 07:12:32;;;;;;;10.07;4.78;;;21.80;99.90;;;;;;4957172;28;20062;-48
2023/03/10 07:14:58;;;;;;;10.25;4.75;;;21.80;99.90;;;;;;4957327;28;20451;-48
2023/03/10 07:17:23;;;;;;;8.20;5.10;;;21.80;99.90;;;;;;4957376;28;20376;-48
2023/03/10 07:19:49;;;;;;;7.55;4.03;;;21.80;99.90;;;;;;4955892;28;20464;-48
2023/03/10 07:22:15;;;;;;;9.13;4.60;;;21.80;99.90;;;;;;4956051;28;20094;-48
2023/03/10 07:24:41;;;;;;;7.03;4.68;;;21.80;99.90;;;;;;4956973;28;20035;-48
2023/03/10 07:27:08;;;;;;;7.65;4.80;;;21.80;99.90;;;;;;4957257;28;20054;-49
2023/03/10 07:29:34;;;;;;;8.38;4.75;;;21.80;99.90;;;;;;4956954;28;20024;-48
2023/03/10 07:31:59;;;;;;;8.98;4.45;;;21.80;99.90;;;;;;4957076;28;20032;-49
2023/03/10 07:34:25;;;;;;;8.90;4.63;;;21.80;99.90;;;;;;4956832;28;20384;-49
2023/03/10 07:36:51;;;;;;;7.53;5.43;;;21.90;99.90;;;;;;4955559;28;20019;-48
2023/03/10 07:39:17;;;;;;;8.60;4.72;;;21.80;99.90;;;;;;4956991;28;20035;-48
2023/03/10 07:41:43;;;;;;;7.07;4.47;;;21.80;99.90;;;;;;4957030;28;20092;-48
2023/03/10 07:44:09;;;;;;;8.18;5.15;;;21.90;99.90;;;;;;4956870;28;20486;-48
2023/03/10 07:46:34;;;;;;;10.38;6.07;;;21.90;99.90;;;;;;4956668;28;20027;-48
2023/03/10 07:49:03;;;;;;;8.85;5.25;;;21.90;99.90;;;;;;4956567;28;20487;-48
2023/03/10 07:51:32;;;;;;;8.23;5.10;;;21.90;99.90;;;;;;4956635;28;20456;-49
2023/03/10 07:53:58;;;;;;;6.93;4.68;;;21.90;99.90;;;;;;4955565;28;20059;-49
2023/03/10 07:56:23;;;;;;;8.85;4.97;;;21.90;99.90;;;;;;4956552;28;20471;-48
2023/03/10 07:58:49;;;;;;;8.45;5.80;;;21.90;99.90;;;;;;4956617;28;20196;-49
2023/03/10 08:01:17;;;;;;;10.27;5.13;;;21.90;99.90;;;;;;4956257;28;20138;-48
2023/03/10 08:03:43;;;;;;;8.63;5.20;;;21.90;99.90;;;;;;4954888;28;20023;-48
2023/03/10 08:06:23;;;;;;;9.45;5.13;;;22.00;99.90;;;;;;4956202;28;20039;-49
2023/03/10 08:08:49;;;;;;;9.27;5.10;;;21.90;99.90;;;;;;4956674;28;20368;-49
2023/03/10 08:11:15;;;;;;;7.88;4.97;;;22.00;99.90;;;;;;4956445;28;20031;-48
2023/03/10 08:13:44;;;;;;;8.18;4.78;;;22.00;99.90;;;;;;4956405;28;20023;-49
2023/03/10 08:16:09;;;;;;;10.48;5.45;;;22.00;99.90;;;;;;4956251;28;20448;-48
2023/03/10 08:18:35;;;;;;;7.90;4.82;;;22.00;99.90;;;;;;4956029;28;20106;-48
2023/03/10 08:21:05;;;;;;;8.15;4.95;;;22.00;99.90;;;;;;4956204;28;20047;-48
2023/03/10 08:23:32;;;;;;;8.73;5.07;;;22.00;99.90;;;;;;4941706;28;20106;-49
2023/03/10 08:26:03;;;;;;;9.80;5.55;;;22.00;99.90;;;;;;4955989;28;20065;-48
2023/03/10 08:28:30;;;;;;;10.27;5.43;;;22.00;99.90;;;;;;4955869;28;20096;-49
2023/03/10 08:30:59;;;;;;;9.95;5.43;;;22.00;99.90;;;;;;4956090;28;20035;-49
2023/03/10 08:33:27;;;;;;;8.13;5.10;;;22.00;99.90;;;;;;4955913;28;20026;-49
2023/03/10 08:36:08;;;;;;;9.63;5.57;;;22.10;99.90;;;;;;4955910;28;20171;-48
2023/03/10 08:38:34;;;;;;;9.35;5.60;;;22.10;99.90;;;;;;4955753;28;20383;-48
2023/03/10 08:41:15;;;;;;;10.70;5.57;;;22.10;99.90;;;;;;4954473;28;20038;-49
2023/03/10 08:43:42;;;;;;;9.48;5.25;;;22.10;99.90;;;;;;4942363;28;20085;-49
2023/03/10 08:46:09;;;;;;;7.30;5.25;;;22.10;99.90;;;;;;4955423;28;20089;-48
2023/03/10 08:48:35;;;;;;;9.50;5.35;;;22.10;99.90;;;;;;4955638;28;20015;-48
2023/03/10 08:51:01;;;;;;;11.95;6.15;;;22.10;99.90;;;;;;4955603;28;20104;-49
2023/03/10 08:53:26;;;;;;;9.60;5.47;;;22.10;99.90;;;;;;4955351;28;20019;-49
2023/03/10 08:55:52;;;;;;;10.43;5.97;;;22.10;99.90;;;;;;4955482;28;20023;-49
2023/03/10 08:58:18;;;;;;;10.00;5.53;;;22.10;99.90;;;;;;4955339;28;20098;-49
2023/03/10 09:00:44;;;;;;;10.63;5.05;;;22.20;99.90;;;;;;4955389;28;20523;-49
2023/03/10 09:03:13;;;;;;;10.45;5.82;;;22.10;99.90;;;;;;4955303;28;20054;-49
2023/03/10 09:05:40;;;;;;;12.48;5.85;;;22.20;99.90;;;;;;4953964;28;20042;-48
2023/03/10 09:08:06;;;;;;;8.40;5.47;;;22.20;99.90;;;;;;4955268;28;20034;-49
2023/03/10 09:10:34;;;;;;;9.27;5.30;;;22.20;99.90;;;;;;4955465;28;20032;-49
2023/03/10 09:12:59;;;;;;;9.40;5.85;;;22.20;99.90;;;;;;4955018;28;20415;-49
2023/03/10 09:15:25;;;;;;;9.32;5.50;;;22.20;99.90;;;;;;4953186;28;20035;-49
2023/03/10 09:17:51;;;;;;;8.65;5.90;;;22.30;99.90;;;;;;4955077;28;20106;-49
2023/03/10 09:20:20;;;;;;;8.40;5.28;;;22.30;99.90;;;;;;4955357;28;20023;-48
2023/03/10 09:22:46;;;;;;;8.20;5.38;;;22.30;99.90;;;;;;4955304;28;20019;-48
2023/03/10 09:25:12;;;;;;;8.82;5.65;;;22.30;99.90;;;;;;4954870;28;20035;-49
2023/03/10 09:27:37;;;;;;;7.53;5.32;;;22.30;99.90;;;;;;4937772;28;20040;-49
2023/03/10 09:30:04;;;;;;;8.30;5.45;;;22.30;99.90;;;;;;4954947;28;20468;-49
2023/03/10 09:32:30;;;;;;;10.25;5.60;;;22.30;99.90;;;;;;4954948;28;20050;-49
2023/03/10 09:34:56;;;;;;;9.60;5.65;;;22.30;99.90;;;;;;4954752;28;20472;-49
2023/03/10 09:37:21;;;;;;;15.13;5.97;;;22.40;99.90;;;;;;4954583;28;20019;-49
2023/03/10 09:39:47;;;;;;;11.65;6.20;;;22.40;99.90;;;;;;4954857;28;20492;-49
2023/03/10 09:42:16;;;;;;;10.60;5.82;;;22.40;99.90;;;;;;4953494;28;20058;-49
2023/03/10 09:44:55;;;;;;;9.38;5.00;;;22.40;99.90;;;;;;4953084;28;20039;-48
2023/03/10 09:47:39;;;;;;;11.55;5.60;;;22.40;99.90;;;;;;4954611;28;20019;-49
2023/03/10 09:50:26;;;;;;;17.05;6.93;;;22.40;99.90;;;;;;4953167;28;20027;-49
2023/03/10 09:53:31;;;;;;;11.40;6.53;;;22.40;99.90;;;;;;4954459;28;20480;-49
2023/03/10 09:55:57;;;;;;;9.55;6.03;;;22.50;99.90;;;;;;4943301;29;20027;-48
2023/03/10 09:58:26;;;;;;;10.48;6.57;;;22.50;99.90;;;;;;4942282;28;20046;-49
2023/03/10 10:00:52;;;;;;;11.32;6.88;;;22.50;99.90;;;;;;4954163;28;20050;-49
2023/03/10 10:03:30;;;;;;;10.65;5.60;;;22.60;99.90;;;;;;4954474;28;20031;-48
2023/03/10 10:05:56;;;;;;;;;;;22.60;99.90;;;;;;4954567;28;20031;-48
2023/03/10 10:08:36;;;;;;;14.93;6.82;;;22.60;99.90;;;;;;4954080;28;19913;-55
2023/03/10 10:11:03;;;;;;;10.93;6.13;;;22.70;99.90;;;;;;4954196;28;20057;-48
2023/03/10 10:13:29;;;;;;;11.10;6.57;;;22.70;99.90;;;;;;4954104;28;20413;-48
2023/03/10 10:16:06;;;;;;;13.52;7.38;;;22.70;99.90;;;;;;4954154;28;20069;-48
2023/03/10 10:18:45;;;;;;;13.15;7.53;;;22.80;99.90;;;;;;4953822;28;20024;-49
2023/03/10 10:21:16;;;;;;;10.60;6.63;;;22.80;99.90;;;;;;4954116;28;20467;-48
2023/03/10 10:23:50;;;;;;;13.38;6.55;;;22.80;99.90;;;;;;4953828;28;20487;-48
2023/03/10 10:26:19;;;;;;;10.50;7.03;;;22.80;99.90;;;;;;4953603;28;20042;-48
2023/03/10 10:28:57;;;;;;;11.77;7.07;;;22.90;99.90;;;;;;4953622;28;20023;-51
2023/03/10 10:31:30;;;;;;;10.02;6.32;;;22.80;99.90;;;;;;4953876;28;20106;-48
2023/03/10 10:34:02;;;;;;;9.82;6.30;;;22.90;99.90;;;;;;4953924;28;20106;-48
2023/03/10 10:36:54;;;;;;;9.57;6.20;;;22.90;99.90;;;;;;4953746;28;20086;-48
2023/03/10 10:39:39;;;;;;;10.90;6.32;;;22.90;99.90;;;;;;4954089;28;20253;-48
2023/03/10 10:42:19;;;;;;;12.25;7.80;;;22.90;99.90;;;;;;4942920;28;20479;-48
2023/03/10 10:44:45;;;;;;;11.10;6.20;;;23.00;99.90;;;;;;4953669;28;20443;-48
2023/03/10 10:47:33;;;;;;;16.17;6.55;;;23.00;99.90;;;;;;4953692;28;20038;-50
2023/03/10 10:50:22;;;;;;;10.82;6.88;;;23.00;99.90;;;;;;4953560;28;20380;-48
2023/03/10 10:52:51;;;;;;;15.65;7.25;;;23.10;99.90;;;;;;4952521;28;20499;-49
2023/03/10 10:55:26;;;;;;;13.18;6.85;;;23.10;99.90;;;;;;4953687;28;20058;-48
2023/03/10 10:57:55;;;;;;;14.25;7.18;;;23.10;99.90;;;;;;4953689;28;20035;-49
2023/03/10 11:00:27;;;;;;;10.43;6.30;;;23.10;99.90;;;;;;4953714;28;20484;-49
2023/03/10 11:02:53;;;;;;;14.27;7.05;;;23.10;99.90;;;;;;4953912;28;20046;-49
2023/03/10 11:05:36;;;;;;;15.75;6.25;;;23.20;99.90;;;;;;4953454;28;20036;-48
2023/03/10 11:08:26;;;;;;;14.23;7.00;;;23.20;99.90;;;;;;4953423;28;20144;-49
2023/03/10 11:11:15;;;;;;;10.02;6.93;;;23.20;99.90;;;;;;4953643;28;20390;-49
2023/03/10 11:13:50;;;;;;;11.07;6.78;;;23.20;99.90;;;;;;4952853;28;20067;-49
2023/03/10 11:16:33;;;;;;;13.20;7.53;;;23.30;99.90;;;;;;4953322;28;20031;-48
2023/03/10 11:19:13;;;;;;;14.98;6.28;;;23.30;99.90;;;;;;4953577;28;20023;-49
2023/03/10 11:21:44;;;;;;;11.05;6.60;;;23.30;99.90;;;;;;4953180;28;20067;-49
2023/03/10 11:24:25;;;;;;;10.00;6.65;;;23.40;99.90;;;;;;4953232;28;20034;-49
2023/03/10 11:27:28;;;;;;;15.35;6.70;;;23.40;99.90;;;;;;4952585;28;20031;-49
2023/03/10 11:30:04;;;;;;;12.25;6.53;;;23.40;99.90;;;;;;4947599;28;20039;-49
2023/03/10 11:32:44;;;;;;;10.53;6.87;;;23.40;99.90;;;;;;4953527;28;20483;-50
2023/03/10 11:35:44;;;;;;;11.50;6.80;;;23.50;99.90;;;;;;4939981;28;20365;-50
2023/03/10 11:38:29;;;;;;;11.52;6.32;;;23.50;99.90;;;;;;4953375;28;20098;-50
2023/03/10 11:40:59;;;;;;;10.70;6.68;;;23.50;99.90;;;;;;4957211;28;20031;-50
2023/03/10 11:43:50;;;;;;;13.27;6.90;;;23.50;99.90;;;;;;4957014;28;20094;-50
2023/03/10 11:46:34;;;;;;;11.68;7.43;;;23.60;99.90;;;;;;4956607;28;20048;-51
2023/03/10 11:49:11;;;;;;;11.07;6.72;;;23.60;99.90;;;;;;4956650;28;20028;-50
2023/03/10 11:51:45;;;;;;;14.18;7.22;;;23.60;99.90;;;;;;4956578;28;20506;-50
2023/03/10 11:54:42;;;;;;;11.13;6.95;;;23.60;99.90;;;;;;4955315;28;20031;-50
2023/03/10 11:57:20;;;;;;;17.10;7.03;;;23.60;99.90;;;;;;4956326;28;20035;-50
2023/03/10 11:59:54;;;;;;;19.02;7.53;;;23.70;99.90;;;;;;4955009;28;20483;-50
2023/03/10 12:02:28;;;;;;;12.95;7.65;;;23.70;99.90;;;;;;4955165;28;20161;-50
2023/03/10 12:05:00;;;;;;;14.02;7.07;;;23.70;99.90;;;;;;4956457;28;20039;-50
2023/03/10 12:07:46;;;;;;;12.52;7.38;;;23.70;99.90;;;;;;4956767;28;20057;-50
2023/03/10 12:10:11;;;;;;;13.05;6.13;;;23.80;99.90;;;;;;4955308;28;20435;-50
2023/03/10 12:12:43;;;;;;;9.98;3.33;;;23.80;99.90;;;;;;4955692;28;20024;-50
2023/03/10 12:15:31;;;;;;;9.40;3.15;;;23.80;99.90;;;;;;4956240;28;20094;-50
2023/03/10 12:17:57;;;;;;;8.60;2.78;;;23.90;99.90;;;;;;4956425;28;20106;-50
2023/03/10 12:20:29;;;;;;;10.93;2.95;;;23.90;99.90;;;;;;4954086;28;20027;-50
2023/03/10 12:23:10;;;;;;;10.55;3.03;;;23.90;99.90;;;;;;4954964;28;20023;-50
2023/03/10 12:25:38;;;;;;;18.20;3.53;;;24.00;99.90;;;;;;4955406;28;20039;-51
2023/03/10 12:28:11;;;;;;;14.13;4.07;;;24.00;99.90;;;;;;4956129;28;20599;-51
2023/03/10 12:30:44;;;;;;;20.83;4.10;;;24.10;99.90;;;;;;4955354;28;20081;-49
2023/03/10 12:33:36;;;;;;;12.80;3.47;;;24.10;99.90;;;;;;4955456;28;20500;-51
2023/03/10 12:36:24;;;;;;;10.30;4.15;;;24.10;99.90;;;;;;4957598;28;20044;-49
2023/03/10 12:39:27;;;;;;;10.90;4.60;;;24.10;99.90;;;;;;4955755;28;20035;-50
2023/03/10 12:41:53;;;;;;;14.23;4.50;;;24.10;99.90;;;;;;4953848;28;20038;-50
2023/03/10 12:44:49;;;;;;;12.63;4.70;;;24.20;99.90;;;;;;4955842;28;20046;-50
2023/03/10 12:47:57;;;;;;;13.20;4.82;;;24.20;99.90;;;;;;4955387;28;20038;-50
2023/03/10 12:50:35;;;;;;;9.95;5.45;;;24.20;99.90;;;;;;4954922;28;20511;-50
2023/03/10 12:53:32;;;;;;;8.38;4.10;;;24.30;99.90;;;;;;4954247;28;20575;-50